sensor_id;sensor_type;location;lat;lon;timestamp;pressure;altitude;pressure_sealevel;temperature;humidity
69909;BME280;57190;47.918;8.112;2023-05-31T00:00:20;91053.38;;;12.84;49.90
69909;BME280;57190;47.918;8.112;2023-05-31T00:02:46;91049.88;;;12.83;50.25
69909;BME280;57190;47.918;8.112;2023-05-31T00:05:11;91035.47;;;12.79;50.86
69909;BME280;57190;47.918;8.112;2023-05-31T00:07:37;91036.19;;;12.90;50.34
69909;BME280;57190;47.918;8.112;2023-05-31T00:10:02;91038.31;;;12.93;50.38
69909;BME280;57190;47.918;8.112;2023-05-31T00:12:28;91042.63;;;12.89;50.83
69909;BME280;57190;47.918;8.112;2023-05-31T00:14:53;91037.81;;;12.86;51.13
69909;BME280;57190;47.918;8.112;2023-05-31T00:17:19;91037.03;;;12.85;51.34
69909;BME280;57190;47.918;8.112;2023-05-31T00:19:44;91044.78;;;12.87;51.39
69909;BME280;57190;47.918;8.112;2023-05-31T00:22:10;91038.63;;;12.81;51.26
69909;BME280;57190;47.918;8.112;2023-05-31T00:24:36;91032.78;;;12.74;51.69
69909;BME280;57190;47.918;8.112;2023-05-31T00:27:01;91034.94;;;12.77;51.62
69909;BME280;57190;47.918;8.112;2023-05-31T00:29:27;91032.00;;;12.73;51.61
69909;BME280;57190;47.918;8.112;2023-05-31T00:31:52;91037.88;;;12.76;51.87
69909;BME280;57190;47.918;8.112;2023-05-31T00:34:18;91027.19;;;12.70;52.09
69909;BME280;57190;47.918;8.112;2023-05-31T00:36:44;91039.28;;;12.63;52.38
69909;BME280;57190;47.918;8.112;2023-05-31T00:39:10;91025.91;;;12.63;52.09
69909;BME280;57190;47.918;8.112;2023-05-31T00:41:35;91032.03;;;12.63;52.01
69909;BME280;57190;47.918;8.112;2023-05-31T00:44:01;91037.34;;;12.68;51.83
69909;BME280;57190;47.918;8.112;2023-05-31T00:46:28;91027.75;;;12.62;51.91
69909;BME280;57190;47.918;8.112;2023-05-31T00:48:55;91029.94;;;12.55;52.16
69909;BME280;57190;47.918;8.112;2023-05-31T00:51:21;91029.13;;;12.60;52.07
69909;BME280;57190;47.918;8.112;2023-05-31T00:53:47;91035.81;;;12.57;52.46
69909;BME280;57190;47.918;8.112;2023-05-31T00:56:13;91030.47;;;12.57;52.22
69909;BME280;57190;47.918;8.112;2023-05-31T00:58:40;91030.75;;;12.50;52.67
69909;BME280;57190;47.918;8.112;2023-05-31T01:01:07;91027.56;;;12.53;52.79
69909;BME280;57190;47.918;8.112;2023-05-31T01:03:33;91023.28;;;12.47;52.79
69909;BME280;57190;47.918;8.112;2023-05-31T01:05:59;91016.59;;;12.45;52.89
69909;BME280;57190;47.918;8.112;2023-05-31T01:08:26;91012.88;;;12.40;52.93
69909;BME280;57190;47.918;8.112;2023-05-31T01:10:52;91017.16;;;12.41;52.97
69909;BME280;57190;47.918;8.112;2023-05-31T01:13:37;91016.91;;;12.38;53.17
69909;BME280;57190;47.918;8.112;2023-05-31T01:16:21;91010.75;;;12.37;53.52
69909;BME280;57190;47.918;8.112;2023-05-31T01:18:54;91009.97;;;12.32;54.14
69909;BME280;57190;47.918;8.112;2023-05-31T01:24:34;91012.16;;;12.19;54.52
69909;BME280;57190;47.918;8.112;2023-05-31T01:27:06;91010.81;;;12.22;54.94
69909;BME280;57190;47.918;8.112;2023-05-31T01:29:34;91007.56;;;12.30;54.59
69909;BME280;57190;47.918;8.112;2023-05-31T01:32:01;91009.19;;;12.31;54.61
69909;BME280;57190;47.918;8.112;2023-05-31T01:34:27;91009.44;;;12.35;54.58
69909;BME280;57190;47.918;8.112;2023-05-31T01:36:53;91013.97;;;12.34;55.00
69909;BME280;57190;47.918;8.112;2023-05-31T01:39:19;91008.94;;;12.27;55.18
69909;BME280;57190;47.918;8.112;2023-05-31T01:41:46;91004.91;;;12.30;55.09
69909;BME280;57190;47.918;8.112;2023-05-31T01:44:13;91009.19;;;12.26;55.22
69909;BME280;57190;47.918;8.112;2023-05-31T01:46:40;90998.75;;;12.24;55.32
69909;BME280;57190;47.918;8.112;2023-05-31T01:49:06;91000.94;;;12.17;55.69
69909;BME280;57190;47.918;8.112;2023-05-31T01:51:32;91005.75;;;12.20;55.71
69909;BME280;57190;47.918;8.112;2023-05-31T01:54:01;91003.06;;;12.15;55.89
69909;BME280;57190;47.918;8.112;2023-05-31T01:56:30;91007.38;;;12.11;56.13
69909;BME280;57190;47.918;8.112;2023-05-31T01:58:57;91005.22;;;12.13;56.01
69909;BME280;57190;47.918;8.112;2023-05-31T02:01:23;91007.38;;;12.06;56.54
69909;BME280;57190;47.918;8.112;2023-05-31T02:03:50;91005.78;;;12.10;56.28
69909;BME280;57190;47.918;8.112;2023-05-31T02:06:19;90998.78;;;12.19;55.94
69909;BME280;57190;47.918;8.112;2023-05-31T02:08:45;90995.34;;;12.14;56.10
69909;BME280;57190;47.918;8.112;2023-05-31T02:11:10;91003.38;;;12.08;56.15
69909;BME280;57190;47.918;8.112;2023-05-31T02:13:36;90994.50;;;12.13;55.75
69909;BME280;57190;47.918;8.112;2023-05-31T02:16:02;90995.63;;;12.12;55.92
69909;BME280;57190;47.918;8.112;2023-05-31T02:18:31;91001.78;;;12.07;55.86
69909;BME280;57190;47.918;8.112;2023-05-31T02:20:57;91015.16;;;12.02;56.32
69909;BME280;57190;47.918;8.112;2023-05-31T02:23:23;91002.28;;;12.15;55.63
69909;BME280;57190;47.918;8.112;2023-05-31T02:25:50;91000.72;;;12.08;55.65
69909;BME280;57190;47.918;8.112;2023-05-31T02:28:16;90998.03;;;12.08;55.68
69909;BME280;57190;47.918;8.112;2023-05-31T02:30:53;90999.59;;;12.09;55.55
69909;BME280;57190;47.918;8.112;2023-05-31T02:33:18;90993.47;;;12.09;55.54
69909;BME280;57190;47.918;8.112;2023-05-31T02:35:44;90993.94;;;12.21;54.88
69909;BME280;57190;47.918;8.112;2023-05-31T02:38:09;90984.91;;;12.07;55.58
69909;BME280;57190;47.918;8.112;2023-05-31T02:40:35;90991.63;;;12.04;55.46
69909;BME280;57190;47.918;8.112;2023-05-31T02:43:01;90989.22;;;11.92;56.03
69909;BME280;57190;47.918;8.112;2023-05-31T02:45:26;90995.66;;;11.81;56.70
69909;BME280;57190;47.918;8.112;2023-05-31T02:47:51;91005.03;;;11.73;56.60
69909;BME280;57190;47.918;8.112;2023-05-31T02:50:17;90998.38;;;11.71;56.66
69909;BME280;57190;47.918;8.112;2023-05-31T02:52:42;90998.06;;;11.67;56.69
69909;BME280;57190;47.918;8.112;2023-05-31T02:55:08;91000.22;;;11.60;56.99
69909;BME280;57190;47.918;8.112;2023-05-31T02:57:33;91003.72;;;11.55;57.22
69909;BME280;57190;47.918;8.112;2023-05-31T03:00:01;91001.59;;;11.47;57.19
69909;BME280;57190;47.918;8.112;2023-05-31T03:02:40;91007.22;;;11.40;57.50
69909;BME280;57190;47.918;8.112;2023-05-31T03:05:06;91004.78;;;11.39;57.27
69909;BME280;57190;47.918;8.112;2023-05-31T03:07:35;91005.34;;;11.36;57.58
69909;BME280;57190;47.918;8.112;2023-05-31T03:10:00;91010.44;;;11.32;57.82
69909;BME280;57190;47.918;8.112;2023-05-31T03:12:30;91009.59;;;11.31;57.82
69909;BME280;57190;47.918;8.112;2023-05-31T03:14:55;91007.50;;;11.28;57.80
69909;BME280;57190;47.918;8.112;2023-05-31T03:17:21;91012.56;;;11.30;57.71
69909;BME280;57190;47.918;8.112;2023-05-31T03:19:46;91009.91;;;11.25;57.73
69909;BME280;57190;47.918;8.112;2023-05-31T03:22:12;91012.53;;;11.20;58.02
69909;BME280;57190;47.918;8.112;2023-05-31T03:24:38;91008.03;;;11.20;57.60
69909;BME280;57190;47.918;8.112;2023-05-31T03:27:03;91006.16;;;11.15;57.66
69909;BME280;57190;47.918;8.112;2023-05-31T03:29:30;91002.94;;;11.13;57.98
69909;BME280;57190;47.918;8.112;2023-05-31T03:31:56;90997.34;;;11.10;57.86
69909;BME280;57190;47.918;8.112;2023-05-31T03:34:21;91007.47;;;11.08;58.22
69909;BME280;57190;47.918;8.112;2023-05-31T03:36:48;91009.88;;;11.04;58.41
69909;BME280;57190;47.918;8.112;2023-05-31T03:39:13;91003.47;;;11.10;58.52
69909;BME280;57190;47.918;8.112;2023-05-31T03:41:39;91004.81;;;11.08;58.08
69909;BME280;57190;47.918;8.112;2023-05-31T03:44:04;90993.03;;;10.98;58.57
69909;BME280;57190;47.918;8.112;2023-05-31T03:46:30;91004.00;;;10.97;58.43
69909;BME280;57190;47.918;8.112;2023-05-31T03:48:55;90994.13;;;11.03;58.03
69909;BME280;57190;47.918;8.112;2023-05-31T03:51:21;90999.75;;;11.06;57.77
69909;BME280;57190;47.918;8.112;2023-05-31T03:53:46;90988.25;;;11.06;57.56
69909;BME280;57190;47.918;8.112;2023-05-31T03:56:12;90991.72;;;11.11;57.79
69909;BME280;57190;47.918;8.112;2023-05-31T03:58:38;90993.84;;;11.09;57.61
69909;BME280;57190;47.918;8.112;2023-05-31T04:01:03;90989.31;;;11.05;57.99
69909;BME280;57190;47.918;8.112;2023-05-31T04:03:29;90990.91;;;11.00;58.04
69909;BME280;57190;47.918;8.112;2023-05-31T04:05:55;90990.91;;;11.06;58.17
69909;BME280;57190;47.918;8.112;2023-05-31T04:08:20;90985.84;;;11.09;57.55
69909;BME280;57190;47.918;8.112;2023-05-31T04:10:46;90995.44;;;11.10;57.63
69909;BME280;57190;47.918;8.112;2023-05-31T04:13:11;90989.06;;;11.11;57.64
69909;BME280;57190;47.918;8.112;2023-05-31T04:15:37;90992.53;;;11.12;57.80
69909;BME280;57190;47.918;8.112;2023-05-31T04:18:02;90995.41;;;11.67;56.31
69909;BME280;57190;47.918;8.112;2023-05-31T04:20:28;90990.81;;;11.88;55.56
69909;BME280;57190;47.918;8.112;2023-05-31T04:22:54;90993.78;;;11.97;54.91
69909;BME280;57190;47.918;8.112;2023-05-31T04:25:19;90997.25;;;12.03;54.91
69909;BME280;57190;47.918;8.112;2023-05-31T04:27:46;90982.81;;;12.64;52.93
69909;BME280;57190;47.918;8.112;2023-05-31T04:30:11;90994.09;;;12.56;52.93
69909;BME280;57190;47.918;8.112;2023-05-31T04:32:37;90991.59;;;12.70;52.57
69909;BME280;57190;47.918;8.112;2023-05-31T04:35:04;90987.88;;;12.66;52.74
69909;BME280;57190;47.918;8.112;2023-05-31T04:37:31;91000.34;;;12.36;53.54
69909;BME280;57190;47.918;8.112;2023-05-31T04:39:58;90999.16;;;12.63;53.20
69909;BME280;57190;47.918;8.112;2023-05-31T04:42:25;90992.69;;;12.64;53.00
69909;BME280;57190;47.918;8.112;2023-05-31T04:44:54;91007.41;;;12.66;52.58
69909;BME280;57190;47.918;8.112;2023-05-31T04:47:27;91008.28;;;12.51;53.27
69909;BME280;57190;47.918;8.112;2023-05-31T04:49:57;91003.13;;;12.65;53.27
69909;BME280;57190;47.918;8.112;2023-05-31T04:52:27;91002.06;;;13.11;52.05
69909;BME280;57190;47.918;8.112;2023-05-31T04:55:06;91002.53;;;14.12;48.89
69909;BME280;57190;47.918;8.112;2023-05-31T04:57:32;91008.72;;;13.54;50.33
69909;BME280;57190;47.918;8.112;2023-05-31T04:59:58;91006.56;;;13.16;51.30
69909;BME280;57190;47.918;8.112;2023-05-31T05:02:23;91017.41;;;13.00;51.89
69909;BME280;57190;47.918;8.112;2023-05-31T05:04:51;91017.63;;;13.44;50.88
69909;BME280;57190;47.918;8.112;2023-05-31T05:07:16;91002.41;;;13.34;51.09
69909;BME280;57190;47.918;8.112;2023-05-31T05:09:43;91003.69;;;13.47;51.42
69909;BME280;57190;47.918;8.112;2023-05-31T05:12:09;91008.88;;;13.67;50.73
69909;BME280;57190;47.918;8.112;2023-05-31T05:14:35;91006.41;;;13.36;51.71
69909;BME280;57190;47.918;8.112;2023-05-31T05:17:01;91008.91;;;13.23;51.55
69909;BME280;57190;47.918;8.112;2023-05-31T05:19:26;91011.41;;;13.14;51.89
69909;BME280;57190;47.918;8.112;2023-05-31T05:21:52;91010.34;;;13.10;52.18
69909;BME280;57190;47.918;8.112;2023-05-31T05:24:17;91010.03;;;13.16;51.67
69909;BME280;57190;47.918;8.112;2023-05-31T05:26:45;91015.09;;;13.23;51.60
69909;BME280;57190;47.918;8.112;2023-05-31T05:29:14;91016.63;;;13.34;51.80
69909;BME280;57190;47.918;8.112;2023-05-31T05:31:39;91009.34;;;13.45;51.08
69909;BME280;57190;47.918;8.112;2023-05-31T05:34:05;91014.97;;;13.73;50.28
69909;BME280;57190;47.918;8.112;2023-05-31T05:36:30;91014.06;;;14.12;49.71
69909;BME280;57190;47.918;8.112;2023-05-31T05:38:56;91017.53;;;13.89;49.79
69909;BME280;57190;47.918;8.112;2023-05-31T05:41:29;91006.84;;;13.83;49.41
69909;BME280;57190;47.918;8.112;2023-05-31T05:43:54;91015.31;;;13.96;49.86
69909;BME280;57190;47.918;8.112;2023-05-31T05:46:19;91023.03;;;14.27;49.20
69909;BME280;57190;47.918;8.112;2023-05-31T05:48:45;91013.09;;;14.03;49.27
69909;BME280;57190;47.918;8.112;2023-05-31T05:51:11;91018.63;;;13.88;49.31
69909;BME280;57190;47.918;8.112;2023-05-31T05:53:36;91023.75;;;13.84;49.21
69909;BME280;57190;47.918;8.112;2023-05-31T05:56:02;91023.50;;;14.34;48.00
69909;BME280;57190;47.918;8.112;2023-05-31T05:58:27;91022.63;;;14.39;48.16
69909;BME280;57190;47.918;8.112;2023-05-31T06:00:53;91031.41;;;14.20;49.00
69909;BME280;57190;47.918;8.112;2023-05-31T06:03:19;91029.44;;;14.31;48.61
69909;BME280;57190;47.918;8.112;2023-05-31T06:05:45;91028.47;;;14.22;48.58
69909;BME280;57190;47.918;8.112;2023-05-31T06:08:11;91025.72;;;14.27;48.56
69909;BME280;57190;47.918;8.112;2023-05-31T06:10:37;91038.34;;;14.26;48.09
69909;BME280;57190;47.918;8.112;2023-05-31T06:13:03;91039.91;;;14.27;48.60
69909;BME280;57190;47.918;8.112;2023-05-31T06:15:28;91032.69;;;14.28;47.86
69909;BME280;57190;47.918;8.112;2023-05-31T06:17:54;91024.72;;;14.23;48.33
69909;BME280;57190;47.918;8.112;2023-05-31T06:20:21;91028.47;;;14.22;48.72
69909;BME280;57190;47.918;8.112;2023-05-31T06:22:46;91030.53;;;14.30;49.15
69909;BME280;57190;47.918;8.112;2023-05-31T06:25:13;91028.81;;;14.39;47.91
69909;BME280;57190;47.918;8.112;2023-05-31T06:27:38;91027.94;;;14.44;47.78
69909;BME280;57190;47.918;8.112;2023-05-31T06:30:04;91029.97;;;14.52;48.07
69909;BME280;57190;47.918;8.112;2023-05-31T06:32:30;91025.72;;;14.51;48.15
69909;BME280;57190;47.918;8.112;2023-05-31T06:34:56;91035.75;;;14.65;47.70
69909;BME280;57190;47.918;8.112;2023-05-31T06:37:22;91061.00;;;14.88;47.67
69909;BME280;57190;47.918;8.112;2023-05-31T06:39:51;91035.03;;;15.02;47.14
69909;BME280;57190;47.918;8.112;2023-05-31T06:42:16;91040.94;;;15.04;46.88
69909;BME280;57190;47.918;8.112;2023-05-31T06:44:42;91029.16;;;15.19;47.22
69909;BME280;57190;47.918;8.112;2023-05-31T06:47:09;91027.56;;;15.18;46.53
69909;BME280;57190;47.918;8.112;2023-05-31T06:49:34;91031.03;;;15.38;46.91
69909;BME280;57190;47.918;8.112;2023-05-31T06:52:00;91040.09;;;15.61;46.68
69909;BME280;57190;47.918;8.112;2023-05-31T06:54:27;91032.25;;;15.65;46.50
69909;BME280;57190;47.918;8.112;2023-05-31T06:56:53;91028.66;;;15.69;46.44
69909;BME280;57190;47.918;8.112;2023-05-31T06:59:18;91027.50;;;15.76;45.02
69909;BME280;57190;47.918;8.112;2023-05-31T07:01:44;91031.94;;;15.66;45.12
69909;BME280;57190;47.918;8.112;2023-05-31T07:04:09;91029.91;;;15.77;45.04
69909;BME280;57190;47.918;8.112;2023-05-31T07:06:35;91029.25;;;15.85;44.84
69909;BME280;57190;47.918;8.112;2023-05-31T07:09:03;91021.63;;;16.07;45.28
69909;BME280;57190;47.918;8.112;2023-05-31T07:11:29;91029.91;;;16.10;45.05
69909;BME280;57190;47.918;8.112;2023-05-31T07:13:55;91029.50;;;16.17;44.52
69909;BME280;57190;47.918;8.112;2023-05-31T07:16:25;91032.41;;;16.21;44.31
69909;BME280;57190;47.918;8.112;2023-05-31T07:18:50;91037.19;;;16.24;43.86
69909;BME280;57190;47.918;8.112;2023-05-31T07:21:16;91032.41;;;16.21;44.37
69909;BME280;57190;47.918;8.112;2023-05-31T07:23:41;91028.84;;;16.39;44.90
69909;BME280;57190;47.918;8.112;2023-05-31T07:26:07;91040.44;;;16.54;44.48
69909;BME280;57190;47.918;8.112;2023-05-31T07:28:32;91033.03;;;16.59;43.45
69909;BME280;57190;47.918;8.112;2023-05-31T07:30:58;91031.44;;;16.58;43.31
69909;BME280;57190;47.918;8.112;2023-05-31T07:33:23;91035.44;;;16.61;43.32
69909;BME280;57190;47.918;8.112;2023-05-31T07:35:49;91034.34;;;16.62;42.37
69909;BME280;57190;47.918;8.112;2023-05-31T07:38:14;91038.59;;;16.63;42.88
69909;BME280;57190;47.918;8.112;2023-05-31T07:40:40;91040.59;;;16.71;42.35
69909;BME280;57190;47.918;8.112;2023-05-31T07:43:06;91039.31;;;16.82;43.54
69909;BME280;57190;47.918;8.112;2023-05-31T07:45:31;91048.59;;;16.90;42.84
69909;BME280;57190;47.918;8.112;2023-05-31T07:47:57;91045.50;;;16.97;42.57
69909;BME280;57190;47.918;8.112;2023-05-31T07:50:22;91041.91;;;17.02;42.77
69909;BME280;57190;47.918;8.112;2023-05-31T07:52:48;91033.22;;;17.05;42.43
69909;BME280;57190;47.918;8.112;2023-05-31T07:55:15;91041.28;;;17.19;42.40
69909;BME280;57190;47.918;8.112;2023-05-31T07:57:44;91035.59;;;17.20;42.47
69909;BME280;57190;47.918;8.112;2023-05-31T08:00:10;91032.50;;;17.27;41.76
69909;BME280;57190;47.918;8.112;2023-05-31T08:02:39;91033.00;;;17.29;41.75
69909;BME280;57190;47.918;8.112;2023-05-31T08:05:05;91027.84;;;17.41;42.25
69909;BME280;57190;47.918;8.112;2023-05-31T08:07:31;91032.69;;;17.53;40.80
69909;BME280;57190;47.918;8.112;2023-05-31T08:09:56;91030.00;;;17.53;40.58
69909;BME280;57190;47.918;8.112;2023-05-31T08:12:23;91023.00;;;17.52;41.10
69909;BME280;57190;47.918;8.112;2023-05-31T08:14:48;91036.13;;;17.68;41.91
69909;BME280;57190;47.918;8.112;2023-05-31T08:17:14;91032.34;;;17.69;40.70
69909;BME280;57190;47.918;8.112;2023-05-31T08:19:40;91031.59;;;17.77;41.47
69909;BME280;57190;47.918;8.112;2023-05-31T08:22:05;91035.97;;;17.87;39.76
69909;BME280;57190;47.918;8.112;2023-05-31T08:24:31;91030.75;;;17.90;40.59
69909;BME280;57190;47.918;8.112;2023-05-31T08:26:56;91030.19;;;17.80;41.38
69909;BME280;57190;47.918;8.112;2023-05-31T08:29:23;91024.69;;;17.85;40.30
69909;BME280;57190;47.918;8.112;2023-05-31T08:31:49;91036.44;;;17.89;40.73
69909;BME280;57190;47.918;8.112;2023-05-31T08:34:14;91034.94;;;17.97;40.07
69909;BME280;57190;47.918;8.112;2023-05-31T08:36:40;91022.00;;;18.07;40.55
69909;BME280;57190;47.918;8.112;2023-05-31T08:39:07;91026.03;;;18.19;40.96
69909;BME280;57190;47.918;8.112;2023-05-31T08:41:40;91028.09;;;18.22;38.97
69909;BME280;57190;47.918;8.112;2023-05-31T08:44:07;91025.41;;;18.22;40.30
69909;BME280;57190;47.918;8.112;2023-05-31T08:46:34;91035.28;;;18.27;39.33
69909;BME280;57190;47.918;8.112;2023-05-31T08:49:09;91030.53;;;18.32;41.43
69909;BME280;57190;47.918;8.112;2023-05-31T08:51:36;91032.88;;;18.57;38.74
69909;BME280;57190;47.918;8.112;2023-05-31T08:54:02;91033.66;;;18.48;39.15
69909;BME280;57190;47.918;8.112;2023-05-31T08:56:30;91035.66;;;18.34;39.92
69909;BME280;57190;47.918;8.112;2023-05-31T08:58:56;91033.06;;;18.60;39.57
69909;BME280;57190;47.918;8.112;2023-05-31T09:01:22;91024.34;;;18.63;39.42
69909;BME280;57190;47.918;8.112;2023-05-31T09:03:50;91026.31;;;18.89;40.88
69909;BME280;57190;47.918;8.112;2023-05-31T09:06:17;91029.88;;;18.98;39.65
69909;BME280;57190;47.918;8.112;2023-05-31T09:08:43;91027.19;;;19.16;39.64
69909;BME280;57190;47.918;8.112;2023-05-31T09:11:12;91047.72;;;19.08;41.10
69909;BME280;57190;47.918;8.112;2023-05-31T09:13:37;91037.53;;;19.14;38.40
69909;BME280;57190;47.918;8.112;2023-05-31T09:16:03;91040.72;;;19.16;38.19
69909;BME280;57190;47.918;8.112;2023-05-31T09:18:36;91037.06;;;19.12;37.43
69909;BME280;57190;47.918;8.112;2023-05-31T09:21:10;91036.13;;;19.16;37.43
69909;BME280;57190;47.918;8.112;2023-05-31T09:23:36;91036.94;;;19.26;37.30
69909;BME280;57190;47.918;8.112;2023-05-31T09:26:05;91020.53;;;19.40;37.37
69909;BME280;57190;47.918;8.112;2023-05-31T09:28:31;91038.25;;;19.46;38.58
69909;BME280;57190;47.918;8.112;2023-05-31T09:31:01;91022.00;;;19.72;35.65
69909;BME280;57190;47.918;8.112;2023-05-31T09:33:39;91039.97;;;19.59;38.66
69909;BME280;57190;47.918;8.112;2023-05-31T09:36:05;91032.84;;;19.90;37.82
69909;BME280;57190;47.918;8.112;2023-05-31T09:38:32;91027.88;;;19.83;36.37
69909;BME280;57190;47.918;8.112;2023-05-31T09:41:31;91027.25;;;19.69;36.80
69909;BME280;57190;47.918;8.112;2023-05-31T09:43:58;91053.53;;;20.03;36.67
69909;BME280;57190;47.918;8.112;2023-05-31T09:46:24;91022.66;;;19.95;35.21
69909;BME280;57190;47.918;8.112;2023-05-31T09:49:04;91050.34;;;19.84;35.58
69909;BME280;57190;47.918;8.112;2023-05-31T09:51:32;91042.09;;;19.89;37.13
69909;BME280;57190;47.918;8.112;2023-05-31T09:54:00;91037.44;;;20.07;34.91
69909;BME280;57190;47.918;8.112;2023-05-31T09:56:28;91035.53;;;20.07;34.99
69909;BME280;57190;47.918;8.112;2023-05-31T09:58:56;91027.41;;;19.99;34.83
69909;BME280;57190;47.918;8.112;2023-05-31T10:01:22;91026.47;;;20.12;35.45
69909;BME280;57190;47.918;8.112;2023-05-31T10:03:49;91010.19;;;20.21;35.46
69909;BME280;57190;47.918;8.112;2023-05-31T10:06:19;91022.13;;;20.20;34.80
69909;BME280;57190;47.918;8.112;2023-05-31T10:08:45;91024.22;;;20.14;34.80
69909;BME280;57190;47.918;8.112;2023-05-31T10:11:17;91029.63;;;20.23;35.98
69909;BME280;57190;47.918;8.112;2023-05-31T10:13:44;91033.78;;;20.20;34.78
69909;BME280;57190;47.918;8.112;2023-05-31T10:16:10;91033.63;;;19.99;33.44
69909;BME280;57190;47.918;8.112;2023-05-31T10:18:38;91016.59;;;19.99;34.06
69909;BME280;57190;47.918;8.112;2023-05-31T10:21:17;91016.09;;;20.14;35.44
69909;BME280;57190;47.918;8.112;2023-05-31T10:23:57;91010.00;;;20.35;34.47
69909;BME280;57190;47.918;8.112;2023-05-31T10:26:40;91006.59;;;20.47;35.58
69909;BME280;57190;47.918;8.112;2023-05-31T10:29:14;91014.41;;;20.48;35.01
69909;BME280;57190;47.918;8.112;2023-05-31T10:31:46;91016.97;;;20.45;34.64
69909;BME280;57190;47.918;8.112;2023-05-31T10:34:22;91010.28;;;20.42;34.35
69909;BME280;57190;47.918;8.112;2023-05-31T10:36:49;91008.97;;;20.48;34.37
69909;BME280;57190;47.918;8.112;2023-05-31T10:41:52;91014.81;;;20.68;33.96
69909;BME280;57190;47.918;8.112;2023-05-31T10:44:25;91016.88;;;20.71;35.12
69909;BME280;57190;47.918;8.112;2023-05-31T10:47:00;91011.78;;;20.69;35.19
69909;BME280;57190;47.918;8.112;2023-05-31T10:49:31;91011.34;;;20.58;33.98
69909;BME280;57190;47.918;8.112;2023-05-31T10:52:04;91018.69;;;20.49;35.52
69909;BME280;57190;47.918;8.112;2023-05-31T10:54:32;91012.00;;;20.55;33.76
69909;BME280;57190;47.918;8.112;2023-05-31T10:56:58;91006.59;;;20.55;34.14
69909;BME280;57190;47.918;8.112;2023-05-31T10:59:25;91002.91;;;20.60;34.49
69909;BME280;57190;47.918;8.112;2023-05-31T11:01:52;91005.53;;;20.78;34.81
69909;BME280;57190;47.918;8.112;2023-05-31T11:04:19;90998.50;;;20.85;34.78
69909;BME280;57190;47.918;8.112;2023-05-31T11:06:47;91002.22;;;20.72;33.95
69909;BME280;57190;47.918;8.112;2023-05-31T11:09:13;91017.66;;;20.71;35.13
69909;BME280;57190;47.918;8.112;2023-05-31T11:11:44;91008.41;;;20.72;34.50
69909;BME280;57190;47.918;8.112;2023-05-31T11:14:30;91003.97;;;20.68;34.46
69909;BME280;57190;47.918;8.112;2023-05-31T11:17:16;91002.94;;;20.90;35.79
69909;BME280;57190;47.918;8.112;2023-05-31T11:20:04;91004.69;;;20.95;33.93
69909;BME280;57190;47.918;8.112;2023-05-31T11:26:18;91004.16;;;20.63;33.91
69909;BME280;57190;47.918;8.112;2023-05-31T11:29:04;91001.28;;;20.77;34.53
69909;BME280;57190;47.918;8.112;2023-05-31T11:34:49;91006.91;;;20.93;34.59
69909;BME280;57190;47.918;8.112;2023-05-31T11:37:37;91013.59;;;20.95;34.18
69909;BME280;57190;47.918;8.112;2023-05-31T11:40:25;91010.09;;;20.95;34.43
69909;BME280;57190;47.918;8.112;2023-05-31T11:43:13;91009.16;;;20.91;33.98
69909;BME280;57190;47.918;8.112;2023-05-31T11:46:02;91009.31;;;20.94;33.38
69909;BME280;57190;47.918;8.112;2023-05-31T11:48:48;91007.66;;;21.02;35.33
69909;BME280;57190;47.918;8.112;2023-05-31T11:51:33;91006.19;;;21.13;34.86
69909;BME280;57190;47.918;8.112;2023-05-31T11:54:24;91003.97;;;21.07;34.44
69909;BME280;57190;47.918;8.112;2023-05-31T11:57:11;91011.19;;;21.02;34.70
69909;BME280;57190;47.918;8.112;2023-05-31T12:00:04;90997.38;;;21.16;35.55
69909;BME280;57190;47.918;8.112;2023-05-31T12:02:54;91007.34;;;21.33;35.31
69909;BME280;57190;47.918;8.112;2023-05-31T12:05:40;91008.13;;;21.34;36.15
69909;BME280;57190;47.918;8.112;2023-05-31T12:08:27;90991.97;;;21.38;35.47
69909;BME280;57190;47.918;8.112;2023-05-31T12:11:12;91001.31;;;21.49;34.64
69909;BME280;57190;47.918;8.112;2023-05-31T12:13:58;90997.59;;;21.32;33.69
69909;BME280;57190;47.918;8.112;2023-05-31T12:16:46;90997.41;;;21.38;34.04
69909;BME280;57190;47.918;8.112;2023-05-31T12:19:35;91005.28;;;21.51;34.22
69909;BME280;57190;47.918;8.112;2023-05-31T12:22:21;91008.09;;;21.64;33.52
69909;BME280;57190;47.918;8.112;2023-05-31T12:25:08;91007.00;;;21.56;32.65
69909;BME280;57190;47.918;8.112;2023-05-31T12:27:54;90998.03;;;21.86;32.39
69909;BME280;57190;47.918;8.112;2023-05-31T12:30:44;90998.91;;;22.11;31.34
69909;BME280;57190;47.918;8.112;2023-05-31T12:33:29;90998.81;;;22.07;30.10
69909;BME280;57190;47.918;8.112;2023-05-31T12:36:20;91007.31;;;22.18;32.16
69909;BME280;57190;47.918;8.112;2023-05-31T12:39:11;91012.22;;;22.37;30.93
69909;BME280;57190;47.918;8.112;2023-05-31T12:41:58;90996.47;;;22.30;30.17
69909;BME280;57190;47.918;8.112;2023-05-31T12:44:43;90996.59;;;22.68;31.81
69909;BME280;57190;47.918;8.112;2023-05-31T12:47:28;90997.38;;;22.81;31.48
69909;BME280;57190;47.918;8.112;2023-05-31T12:50:15;90990.13;;;22.85;31.68
69909;BME280;57190;47.918;8.112;2023-05-31T12:53:00;90999.88;;;22.86;32.53
69909;BME280;57190;47.918;8.112;2023-05-31T12:55:47;90997.50;;;22.97;30.89
69909;BME280;57190;47.918;8.112;2023-05-31T12:58:33;91004.63;;;23.01;30.46
69909;BME280;57190;47.918;8.112;2023-05-31T13:01:19;90989.81;;;23.11;29.96
69909;BME280;57190;47.918;8.112;2023-05-31T13:04:05;90994.53;;;23.14;30.84
69909;BME280;57190;47.918;8.112;2023-05-31T13:06:51;90993.53;;;23.06;30.86
69909;BME280;57190;47.918;8.112;2023-05-31T13:09:37;90992.50;;;22.99;29.58
69909;BME280;57190;47.918;8.112;2023-05-31T13:12:24;90988.44;;;23.17;32.32
69909;BME280;57190;47.918;8.112;2023-05-31T13:15:10;90981.75;;;23.27;29.59
69909;BME280;57190;47.918;8.112;2023-05-31T13:17:55;90984.78;;;23.38;29.72
69909;BME280;57190;47.918;8.112;2023-05-31T13:20:43;90986.28;;;23.35;29.50
69909;BME280;57190;47.918;8.112;2023-05-31T13:23:29;90981.19;;;23.21;30.59
69909;BME280;57190;47.918;8.112;2023-05-31T13:26:15;90972.34;;;23.24;29.73